createdAt,value
2018-12-22T00:00:41.365Z,94.80
2018-12-22T00:03:23.221Z,94.90
2018-12-22T00:06:05.282Z,94.90
2018-12-22T00:08:47.357Z,95.10
2018-12-22T00:11:29.499Z,95.20
2018-12-22T00:14:11.397Z,95.20
2018-12-22T00:16:53.269Z,95.30
2018-12-22T00:19:35.051Z,95.30
2018-12-22T00:22:17.179Z,95.40
2018-12-22T00:24:59.196Z,95.30
2018-12-22T00:27:41.146Z,95.60
2018-12-22T00:30:23.121Z,95.70
2018-12-22T00:33:04.882Z,95.70
2018-12-22T00:35:46.765Z,95.70
2018-12-22T00:38:28.773Z,95.70
2018-12-22T00:41:10.989Z,95.60
2018-12-22T00:43:53.045Z,95.60
2018-12-22T00:46:35.110Z,95.50
2018-12-22T00:49:17.029Z,95.60
2018-12-22T00:51:59.018Z,95.70
2018-12-22T00:54:41.046Z,96.70
2018-12-22T00:57:23.145Z,97.30
2018-12-22T01:00:06.345Z,97.90
2018-12-22T01:02:48.230Z,98.20
2018-12-22T01:05:30.150Z,98.40
2018-12-22T01:08:12.238Z,98.60
2018-12-22T01:10:54.322Z,98.70
2018-12-22T01:13:36.342Z,98.90
2018-12-22T01:16:18.191Z,99.10
2018-12-22T01:19:00.132Z,99.20
2018-12-22T01:21:42.105Z,99.30
2018-12-22T01:24:24.059Z,99.30
2018-12-22T01:27:06.189Z,99.30
2018-12-22T01:29:48.134Z,99.10
2018-12-22T01:32:30.359Z,99.00
2018-12-22T01:35:12.235Z,99.00
2018-12-22T01:37:54.015Z,99.00
2018-12-22T01:40:36.440Z,98.90
2018-12-22T01:43:18.542Z,98.90
2018-12-22T01:46:00.449Z,98.90
2018-12-22T01:48:42.635Z,99.00
2018-12-22T01:51:24.872Z,98.80
2018-12-22T01:54:06.633Z,98.70
2018-12-22T01:56:48.450Z,98.50
2018-12-22T01:59:30.627Z,98.20
2018-12-22T02:02:12.841Z,97.90
2018-12-22T02:04:55.011Z,97.40
2018-12-22T02:07:37.023Z,97.20
2018-12-22T02:10:19.345Z,97.00
2018-12-22T02:13:00.922Z,97.10
2018-12-22T02:15:42.930Z,97.50
2018-12-22T02:18:24.810Z,97.50
2018-12-22T02:21:07.173Z,97.70
2018-12-22T02:23:49.113Z,97.70
2018-12-22T02:26:30.877Z,97.60
2018-12-22T02:29:12.713Z,97.50
2018-12-22T02:31:54.747Z,97.20
2018-12-22T02:34:37.593Z,97.00
2018-12-22T02:37:19.773Z,96.70
2018-12-22T02:40:01.644Z,95.60
2018-12-22T02:42:43.753Z,95.20
2018-12-22T02:45:25.646Z,94.70
2018-12-22T02:48:07.405Z,94.40
2018-12-22T02:50:49.521Z,93.80
2018-12-22T02:53:31.274Z,93.70
2018-12-22T02:56:13.397Z,93.70
2018-12-22T02:58:55.469Z,93.60
2018-12-22T03:01:37.552Z,93.50
2018-12-22T03:04:19.600Z,93.30
2018-12-22T03:07:01.817Z,93.20
2018-12-22T03:09:43.735Z,93.30
2018-12-22T03:12:25.855Z,93.50
2018-12-22T03:15:07.802Z,93.30
2018-12-22T03:17:49.653Z,92.90
2018-12-22T03:20:31.672Z,92.90
2018-12-22T03:23:13.848Z,92.40
2018-12-22T03:25:55.806Z,92.40
2018-12-22T03:28:37.979Z,92.50
2018-12-22T03:31:20.103Z,92.50
2018-12-22T03:34:02.360Z,92.80
2018-12-22T03:36:44.373Z,92.80
2018-12-22T03:39:26.509Z,92.50
2018-12-22T03:42:08.598Z,92.10
2018-12-22T03:44:50.604Z,92.30
2018-12-22T03:47:32.775Z,91.90
2018-12-22T03:50:14.827Z,91.90
2018-12-22T03:52:56.927Z,91.80
2018-12-22T03:55:39.047Z,91.70
2018-12-22T03:58:21.095Z,91.50
2018-12-22T04:01:03.226Z,91.10
2018-12-22T04:03:44.981Z,90.90
2018-12-22T04:06:27.123Z,90.70
2018-12-22T04:09:09.378Z,91.10
2018-12-22T04:11:51.178Z,90.80
2018-12-22T04:14:33.233Z,90.90
2018-12-22T04:17:15.119Z,90.80
2018-12-22T04:19:56.922Z,90.90
2018-12-22T04:22:39.166Z,90.90
2018-12-22T04:25:21.053Z,90.70
2018-12-22T04:28:03.238Z,90.80
2018-12-22T04:30:45.307Z,90.70
2018-12-22T04:33:27.574Z,90.60
2018-12-22T04:36:09.737Z,90.50
2018-12-22T04:38:52.835Z,90.70
2018-12-22T04:41:34.814Z,90.60
2018-12-22T04:44:17.061Z,90.60
2018-12-22T04:46:59.222Z,90.60
2018-12-22T04:49:41.389Z,90.50
2018-12-22T04:52:23.430Z,90.60
2018-12-22T04:55:05.337Z,90.70
2018-12-22T04:57:47.183Z,90.80
2018-12-22T05:00:29.553Z,90.90
2018-12-22T05:03:11.617Z,91.10
2018-12-22T05:05:53.617Z,91.20
2018-12-22T05:08:35.826Z,91.30
2018-12-22T05:11:17.610Z,91.20
2018-12-22T05:13:59.701Z,91.20
2018-12-22T05:16:41.758Z,91.50
2018-12-22T05:19:23.809Z,91.60
2018-12-22T05:22:05.785Z,91.50
2018-12-22T05:24:54.020Z,91.60
2018-12-22T05:27:35.695Z,91.80
2018-12-22T05:30:17.686Z,91.80
2018-12-22T05:32:59.849Z,91.90
2018-12-22T05:35:41.759Z,91.80
2018-12-22T05:38:23.970Z,91.90
2018-12-22T05:41:06.003Z,91.90
2018-12-22T05:43:48.093Z,91.90
2018-12-22T05:46:30.139Z,91.90
2018-12-22T05:49:12.258Z,91.90
2018-12-22T05:51:54.126Z,91.80
2018-12-22T05:54:36.297Z,91.90
2018-12-22T05:57:18.208Z,91.90
2018-12-22T06:00:01.027Z,92.00
2018-12-22T06:02:43.600Z,92.00
2018-12-22T06:05:25.584Z,92.00
2018-12-22T06:08:07.573Z,92.10
2018-12-22T06:10:49.501Z,92.00
2018-12-22T06:13:31.502Z,92.20
2018-12-22T06:16:13.858Z,92.20
2018-12-22T06:18:55.727Z,92.30
2018-12-22T06:21:37.588Z,92.30
2018-12-22T06:24:19.671Z,92.30
2018-12-22T06:27:01.334Z,92.30
2018-12-22T06:29:43.666Z,92.50
2018-12-22T06:32:25.765Z,92.60
2018-12-22T06:35:07.817Z,92.80
2018-12-22T06:37:49.964Z,92.80
2018-12-22T06:40:31.906Z,92.60
2018-12-22T06:43:13.610Z,92.50
2018-12-22T06:45:55.710Z,92.50
2018-12-22T06:48:37.857Z,92.50
2018-12-22T06:51:19.857Z,92.90
2018-12-22T06:54:08.373Z,92.50
2018-12-22T06:56:50.557Z,92.50
2018-12-22T06:59:32.480Z,92.60
2018-12-22T07:02:14.551Z,92.60
2018-12-22T07:04:56.546Z,92.70
2018-12-22T07:07:38.614Z,92.80
2018-12-22T07:10:20.759Z,92.80
2018-12-22T07:13:02.767Z,92.80
2018-12-22T07:15:44.780Z,92.70
2018-12-22T07:18:26.866Z,92.70
2018-12-22T07:21:08.891Z,92.70
2018-12-22T07:23:50.812Z,92.60
2018-12-22T07:26:32.782Z,92.50
2018-12-22T07:29:15.013Z,92.50
2018-12-22T07:31:57.015Z,92.60
2018-12-22T07:34:39.091Z,92.60
2018-12-22T07:37:21.081Z,92.50
2018-12-22T07:40:02.862Z,92.60
2018-12-22T07:42:44.736Z,92.60
2018-12-22T07:45:26.847Z,92.50
2018-12-22T07:48:09.814Z,92.60
2018-12-22T07:50:51.986Z,92.60
2018-12-22T07:53:33.810Z,92.70
2018-12-22T07:56:16.287Z,92.70
2018-12-22T07:58:58.191Z,92.70
2018-12-22T08:01:40.208Z,92.70
2018-12-22T08:04:22.486Z,92.70
2018-12-22T08:07:04.611Z,92.70
2018-12-22T08:09:46.788Z,92.80
2018-12-22T08:12:28.839Z,92.80
2018-12-22T08:15:10.688Z,92.70
2018-12-22T08:17:52.674Z,92.50
2018-12-22T08:20:34.793Z,92.50
2018-12-22T08:23:16.999Z,92.50
2018-12-22T08:25:58.861Z,92.40
2018-12-22T08:28:41.004Z,92.40
2018-12-22T08:31:23.211Z,92.30
2018-12-22T08:34:05.351Z,92.20
2018-12-22T08:36:47.254Z,92.10
2018-12-22T08:39:29.430Z,92.10
2018-12-22T08:42:12.438Z,91.90
2018-12-22T08:44:54.519Z,91.90
2018-12-22T08:47:36.673Z,91.80
2018-12-22T08:50:18.859Z,91.70
2018-12-22T08:53:00.603Z,91.70
2018-12-22T08:55:42.765Z,91.50
2018-12-22T08:58:24.590Z,91.60
2018-12-22T09:01:06.689Z,91.60
2018-12-22T09:03:48.541Z,91.50
2018-12-22T09:06:30.414Z,91.80
2018-12-22T09:09:12.335Z,91.50
2018-12-22T09:11:54.246Z,91.30
2018-12-22T09:14:36.283Z,91.00
2018-12-22T09:17:18.185Z,90.90
2018-12-22T09:20:00.402Z,90.40
2018-12-22T09:22:42.339Z,88.10
2018-12-22T09:25:24.632Z,84.60
2018-12-22T09:28:06.641Z,81.20
2018-12-22T09:30:48.806Z,79.20
2018-12-22T09:33:30.565Z,78.10
2018-12-22T09:36:12.666Z,77.30
2018-12-22T09:38:54.859Z,77.10
2018-12-22T09:41:36.950Z,78.10
2018-12-22T09:44:18.744Z,78.60
2018-12-22T09:47:00.892Z,78.90
2018-12-22T09:49:43.202Z,79.10
2018-12-22T09:52:25.461Z,79.00
2018-12-22T09:55:07.418Z,78.70
2018-12-22T09:57:49.130Z,78.40
2018-12-22T10:00:31.047Z,78.50
2018-12-22T10:04:16.901Z,79.00
2018-12-22T10:06:59.287Z,79.80
2018-12-22T10:09:41.447Z,82.20
2018-12-22T10:12:23.359Z,84.10
2018-12-22T10:15:06.597Z,85.30
2018-12-22T10:17:48.387Z,86.00
2018-12-22T10:20:30.361Z,86.40
2018-12-22T10:23:12.338Z,87.10
2018-12-22T10:25:54.193Z,87.20
2018-12-22T10:28:36.106Z,87.60
2018-12-22T10:31:19.158Z,88.30
2018-12-22T10:34:01.405Z,88.00
2018-12-22T10:36:43.391Z,88.30
2018-12-22T10:39:25.556Z,88.40
2018-12-22T10:42:07.453Z,88.30
2018-12-22T10:44:49.566Z,88.20
2018-12-22T10:47:31.569Z,88.50
2018-12-22T10:50:13.635Z,88.40
2018-12-22T10:52:55.699Z,88.00
2018-12-22T10:55:37.772Z,88.20
2018-12-22T10:58:19.869Z,88.70
2018-12-22T11:01:01.771Z,87.20
2018-12-22T11:03:43.750Z,87.20
2018-12-22T11:06:25.913Z,87.30
2018-12-22T11:09:11.236Z,87.00
2018-12-22T11:11:53.030Z,86.50
2018-12-22T11:14:35.190Z,86.50
2018-12-22T11:17:17.311Z,85.90
2018-12-22T11:19:59.301Z,85.10
2018-12-22T11:22:41.526Z,84.90
2018-12-22T11:25:25.474Z,84.00
2018-12-22T11:28:07.431Z,84.50
2018-12-22T11:30:49.424Z,83.40
2018-12-22T11:33:31.489Z,82.40
2018-12-22T11:36:13.429Z,84.20
2018-12-22T11:38:55.499Z,82.90
2018-12-22T11:41:37.510Z,83.50
2018-12-22T11:44:19.541Z,83.70
2018-12-22T11:47:06.884Z,83.70
2018-12-22T11:49:49.822Z,83.10
2018-12-22T11:52:31.813Z,84.00
2018-12-22T11:55:13.812Z,83.20
2018-12-22T11:57:56.098Z,83.40
2018-12-22T12:00:37.886Z,83.30
2018-12-22T12:03:19.846Z,84.00
2018-12-22T12:06:01.774Z,83.30
2018-12-22T12:08:43.878Z,84.10
2018-12-22T12:11:25.675Z,82.00
2018-12-22T12:14:07.682Z,82.30
2018-12-22T12:17:05.364Z,82.80
2018-12-22T12:19:47.734Z,82.80
2018-12-22T12:22:29.807Z,83.10
2018-12-22T12:25:12.036Z,83.60
2018-12-22T12:27:53.999Z,83.50
2018-12-22T12:30:36.145Z,83.00
2018-12-22T12:33:18.102Z,82.80
2018-12-22T12:35:59.938Z,83.10
2018-12-22T12:38:42.091Z,82.50
2018-12-22T12:41:24.134Z,81.40
2018-12-22T12:44:05.970Z,80.80
2018-12-22T12:46:50.047Z,80.80
2018-12-22T12:49:32.229Z,79.90
2018-12-22T12:52:14.350Z,78.70
2018-12-22T12:54:56.296Z,77.60
2018-12-22T12:57:38.172Z,76.50
2018-12-22T13:00:20.277Z,75.80
2018-12-22T13:03:02.483Z,76.40
2018-12-22T13:05:44.636Z,75.90
2018-12-22T13:08:26.664Z,78.20
2018-12-22T13:11:08.855Z,78.70
2018-12-22T13:14:10.326Z,79.40
2018-12-22T13:16:52.863Z,79.60
2018-12-22T13:19:34.850Z,80.50
2018-12-22T13:22:16.579Z,80.00
2018-12-22T13:24:58.834Z,79.70
2018-12-22T13:27:40.896Z,81.60
2018-12-22T13:30:22.988Z,79.40
2018-12-22T13:33:04.882Z,79.00
2018-12-22T13:35:47.046Z,79.70
2018-12-22T13:38:30.126Z,79.90
2018-12-22T13:41:11.891Z,78.40
2018-12-22T13:43:53.855Z,78.80
2018-12-22T13:46:35.906Z,77.90
2018-12-22T13:49:17.883Z,77.50
2018-12-22T13:51:59.927Z,78.20
2018-12-22T13:54:42.050Z,76.70
2018-12-22T13:57:24.011Z,75.80
2018-12-22T14:00:10.795Z,74.00
2018-12-22T14:02:52.388Z,73.80
2018-12-22T14:05:35.329Z,69.70
2018-12-22T14:08:17.331Z,69.20
2018-12-22T14:10:59.618Z,69.30
2018-12-22T14:13:41.713Z,70.60
2018-12-22T14:16:31.330Z,69.00
2018-12-22T14:19:14.819Z,70.20
2018-12-22T14:21:56.729Z,71.80
2018-12-22T14:24:43.821Z,72.20
2018-12-22T14:27:25.993Z,74.70
2018-12-22T14:30:11.002Z,76.60
2018-12-22T14:32:52.777Z,78.80
2018-12-22T14:35:44.805Z,79.40
2018-12-22T14:38:26.988Z,80.70
2018-12-22T14:41:09.009Z,81.50
2018-12-22T14:43:50.826Z,82.30
2018-12-22T14:46:32.622Z,83.70
2018-12-22T14:49:14.593Z,83.50
2018-12-22T14:51:56.552Z,82.60
2018-12-22T14:54:38.569Z,82.80
2018-12-22T14:57:20.854Z,82.80
2018-12-22T15:00:03.446Z,83.30
2018-12-22T15:02:46.226Z,84.00
2018-12-22T15:05:28.216Z,84.60
2018-12-22T15:08:10.078Z,85.10
2018-12-22T15:10:51.895Z,85.90
2018-12-22T15:13:33.850Z,86.30
2018-12-22T15:16:15.977Z,87.00
2018-12-22T15:18:58.118Z,87.10
2018-12-22T15:21:40.259Z,87.40
2018-12-22T15:24:36.718Z,87.70
2018-12-22T15:27:18.503Z,88.40
2018-12-22T15:30:00.498Z,88.90
2018-12-22T15:32:46.211Z,89.50
2018-12-22T15:35:26.174Z,89.80
2018-12-22T15:38:08.355Z,90.00
2018-12-22T15:40:50.300Z,90.10
2018-12-22T15:43:33.318Z,90.30
2018-12-22T15:46:15.135Z,90.60
2018-12-22T15:48:57.250Z,90.90
2018-12-22T15:51:39.410Z,91.20
2018-12-22T15:54:21.351Z,91.50
2018-12-22T15:57:03.561Z,91.80
2018-12-22T15:59:45.541Z,91.90
2018-12-22T16:02:27.581Z,92.10
2018-12-22T16:05:10.410Z,92.20
2018-12-22T16:07:52.656Z,92.40
2018-12-22T16:10:34.567Z,92.50
2018-12-22T16:13:16.965Z,92.80
2018-12-22T16:15:58.993Z,93.00
2018-12-22T16:18:40.878Z,93.00
2018-12-22T16:21:22.945Z,93.00
2018-12-22T16:24:04.974Z,93.20
2018-12-22T16:26:46.896Z,93.30
2018-12-22T16:29:32.234Z,93.40
2018-12-22T16:32:14.619Z,93.50
2018-12-22T16:34:56.617Z,93.70
2018-12-22T16:37:38.633Z,93.80
2018-12-22T16:40:20.602Z,93.80
2018-12-22T16:43:04.064Z,94.00
2018-12-22T16:45:49.724Z,93.90
2018-12-22T16:48:32.040Z,93.80
2018-12-22T16:51:13.641Z,93.80
2018-12-22T16:53:55.802Z,93.80
2018-12-22T16:56:37.814Z,93.90
2018-12-22T16:59:19.661Z,93.90
2018-12-22T17:02:16.525Z,94.00
2018-12-22T17:04:58.858Z,94.00
2018-12-22T17:07:41.042Z,94.10
2018-12-22T17:10:23.142Z,94.50
2018-12-22T17:13:05.126Z,94.60
2018-12-22T17:15:51.877Z,94.60
2018-12-22T17:18:34.202Z,94.50
2018-12-22T17:21:22.478Z,94.60
2018-12-22T17:24:12.661Z,94.60
2018-12-22T17:26:54.483Z,94.80
2018-12-22T17:29:36.381Z,94.80
2018-12-22T17:32:18.649Z,94.80
2018-12-22T17:35:00.708Z,95.00
2018-12-22T17:37:42.810Z,95.10
2018-12-22T17:40:24.723Z,95.30
2018-12-22T17:43:06.927Z,95.10
2018-12-22T17:45:48.999Z,95.10
2018-12-22T17:48:30.747Z,95.00
2018-12-22T17:51:12.841Z,95.00
2018-12-22T17:53:54.971Z,94.90
2018-12-22T17:56:36.891Z,95.00
2018-12-22T17:59:18.801Z,95.20
2018-12-22T18:02:01.487Z,95.30
2018-12-22T18:04:43.201Z,95.30
2018-12-22T18:07:24.922Z,95.30
2018-12-22T18:10:08.205Z,95.40
2018-12-22T18:12:50.150Z,95.20
2018-12-22T18:15:31.998Z,95.10
2018-12-22T18:18:14.213Z,95.30
2018-12-22T18:20:56.058Z,95.40
2018-12-22T18:23:38.198Z,95.50
2018-12-22T18:26:20.372Z,95.70
2018-12-22T18:29:02.288Z,95.80
2018-12-22T18:31:44.447Z,96.20
2018-12-22T18:34:26.510Z,96.20
2018-12-22T18:37:08.501Z,96.30
2018-12-22T18:39:50.416Z,96.50
2018-12-22T18:42:32.384Z,96.80
2018-12-22T18:45:14.330Z,97.00
2018-12-22T18:47:56.395Z,97.30
2018-12-22T18:50:38.739Z,97.50
2018-12-22T18:53:20.845Z,97.70
2018-12-22T18:56:02.675Z,97.80
2018-12-22T18:58:45.011Z,97.80
2018-12-22T19:01:26.711Z,97.60
2018-12-22T19:04:08.864Z,97.70
2018-12-22T19:06:50.919Z,97.90
2018-12-22T19:09:34.924Z,98.00
2018-12-22T19:12:18.306Z,97.90
2018-12-22T19:15:00.402Z,97.80
2018-12-22T19:17:42.321Z,97.60
2018-12-22T19:20:28.558Z,97.60
2018-12-22T19:23:12.271Z,97.50
2018-12-22T19:25:54.784Z,97.40
2018-12-22T19:28:36.654Z,97.30
2018-12-22T19:31:18.694Z,97.20
2018-12-22T19:34:00.421Z,97.00
2018-12-22T19:36:42.583Z,96.90
2018-12-22T19:39:24.443Z,96.80
2018-12-22T19:42:06.398Z,96.70
2018-12-22T19:44:48.499Z,96.80
2018-12-22T19:47:30.346Z,96.60
2018-12-22T19:50:12.518Z,96.70
2018-12-22T19:52:54.504Z,96.70
2018-12-22T19:55:36.189Z,96.90
2018-12-22T19:58:18.225Z,97.10
2018-12-22T20:01:00.526Z,97.30
2018-12-22T20:03:42.526Z,97.40
2018-12-22T20:06:25.156Z,97.50
2018-12-22T20:09:07.135Z,97.70
2018-12-22T20:11:49.421Z,97.60
2018-12-22T20:14:31.116Z,97.80
2018-12-22T20:17:13.244Z,98.00
2018-12-22T20:19:55.253Z,98.10
2018-12-22T20:22:37.095Z,98.10
2018-12-22T20:25:18.992Z,98.10
2018-12-22T20:28:00.978Z,98.10
2018-12-22T20:30:44.226Z,98.30
2018-12-22T20:33:26.286Z,98.30
2018-12-22T20:36:08.221Z,98.50
2018-12-22T20:38:50.293Z,98.30
2018-12-22T20:41:32.301Z,98.30
2018-12-22T20:44:14.154Z,98.30
2018-12-22T20:46:56.264Z,98.30
2018-12-22T20:49:38.078Z,98.30
2018-12-22T20:52:20.020Z,98.40
2018-12-22T20:55:01.662Z,98.40
2018-12-22T20:57:43.730Z,98.40
2018-12-22T21:00:25.607Z,98.50
2018-12-22T21:03:07.522Z,98.50
2018-12-22T21:05:58.506Z,98.50
2018-12-22T21:08:40.494Z,98.50
2018-12-22T21:11:22.219Z,98.50
2018-12-22T21:14:04.527Z,98.50
2018-12-22T21:16:47.302Z,98.50
2018-12-22T21:19:28.953Z,98.60
2018-12-22T21:22:10.885Z,98.60
2018-12-22T21:24:53.009Z,98.60
2018-12-22T21:27:34.833Z,98.60
2018-12-22T21:30:16.980Z,98.80
2018-12-22T21:32:59.302Z,98.60
2018-12-22T21:35:41.393Z,98.60
2018-12-22T21:38:24.336Z,98.80
2018-12-22T21:41:06.550Z,98.80
2018-12-22T21:43:48.520Z,98.80
2018-12-22T21:46:30.947Z,98.90
2018-12-22T21:49:13.030Z,98.80
2018-12-22T21:51:54.866Z,98.90
2018-12-22T21:54:36.941Z,98.90
2018-12-22T21:57:18.941Z,99.00
2018-12-22T22:00:00.677Z,99.00
2018-12-22T22:02:42.814Z,99.10
2018-12-22T22:05:24.758Z,99.10
2018-12-22T22:08:06.730Z,99.60
2018-12-22T22:10:48.596Z,99.50
2018-12-22T22:13:30.822Z,99.50
2018-12-22T22:16:12.785Z,99.40
2018-12-22T22:18:54.876Z,99.50
2018-12-22T22:21:37.129Z,99.40
2018-12-22T22:24:19.207Z,99.40
2018-12-22T22:27:01.242Z,99.40
2018-12-22T22:29:43.058Z,99.50
2018-12-22T22:32:25.202Z,99.50
2018-12-22T22:35:07.390Z,99.50
2018-12-22T22:40:45.447Z,99.60
2018-12-22T22:43:27.818Z,99.80
2018-12-22T22:46:09.934Z,99.80
2018-12-22T22:48:51.826Z,99.80
2018-12-22T22:51:33.829Z,99.80
2018-12-22T22:54:15.932Z,99.90
2018-12-22T22:56:59.390Z,99.90
2018-12-22T22:59:41.917Z,99.90
2018-12-22T23:02:24.122Z,99.90
2018-12-22T23:05:06.013Z,99.90
2018-12-22T23:07:47.717Z,99.90
2018-12-22T23:10:29.694Z,99.90
2018-12-22T23:13:11.648Z,99.90
2018-12-22T23:15:53.946Z,99.90
2018-12-22T23:18:35.981Z,99.90
2018-12-22T23:21:19.151Z,99.80
2018-12-22T23:24:01.185Z,99.70
2018-12-22T23:26:43.493Z,99.60
2018-12-22T23:29:25.280Z,99.60
2018-12-22T23:32:07.379Z,99.50
2018-12-22T23:34:49.530Z,99.50
2018-12-22T23:37:31.646Z,99.70
2018-12-22T23:40:14.485Z,99.70
2018-12-22T23:42:56.914Z,99.70
2018-12-22T23:45:39.115Z,99.90
2018-12-22T23:48:21.339Z,99.80
2018-12-22T23:51:02.954Z,99.90
2018-12-22T23:53:45.076Z,99.90
2018-12-22T23:56:26.896Z,99.90
2018-12-22T23:59:09.086Z,99.90
